createdAt,value
2018-11-28T00:00:54.529Z,21.65
2018-11-28T00:01:54.514Z,21.59
2018-11-28T00:02:54.503Z,21.59
2018-11-28T00:03:54.493Z,21.62
2018-11-28T00:04:54.481Z,21.59
2018-11-28T00:05:54.777Z,21.53
2018-11-28T00:06:54.459Z,21.47
2018-11-28T00:07:54.448Z,21.53
2018-11-28T00:08:54.756Z,21.40
2018-11-28T00:09:54.426Z,21.47
2018-11-28T00:10:54.416Z,21.45
2018-11-28T00:11:54.604Z,21.47
2018-11-28T00:12:54.392Z,21.45
2018-11-28T00:13:54.382Z,21.41
2018-11-28T00:14:54.377Z,21.44
2018-11-28T00:15:54.361Z,21.41
2018-11-28T00:16:54.349Z,21.44
2018-11-28T00:17:54.433Z,21.44
2018-11-28T00:18:54.329Z,21.48
2018-11-28T00:19:54.316Z,21.44
2018-11-28T00:20:54.305Z,21.48
2018-11-28T00:21:54.302Z,21.50
2018-11-28T00:22:54.286Z,21.43
2018-11-28T00:23:54.567Z,21.54
2018-11-28T00:24:54.290Z,21.51
2018-11-28T00:25:58.792Z,21.45
2018-11-28T00:26:54.240Z,21.56
2018-11-28T00:27:54.229Z,21.41
2018-11-28T00:28:54.218Z,21.47
2018-11-28T00:29:54.499Z,21.54
2018-11-28T00:30:56.875Z,21.53
2018-11-28T00:31:54.187Z,21.54
2018-11-28T00:32:54.173Z,21.51
2018-11-28T00:33:54.162Z,21.50
2018-11-28T00:34:54.151Z,21.59
2018-11-28T00:35:54.231Z,21.48
2018-11-28T00:36:54.130Z,21.43
2018-11-28T00:37:54.127Z,21.50
2018-11-28T00:38:54.349Z,21.48
2018-11-28T00:39:54.096Z,21.43
2018-11-28T00:40:54.086Z,21.48
2018-11-28T00:41:54.319Z,21.48
2018-11-28T00:42:54.063Z,21.48
2018-11-28T00:43:54.053Z,21.50
2018-11-28T00:44:54.044Z,21.45
2018-11-28T00:45:54.029Z,21.40
2018-11-28T00:46:54.020Z,21.33
2018-11-28T00:47:54.272Z,21.33
2018-11-28T00:48:54.005Z,21.32
2018-11-28T00:49:53.986Z,21.28
2018-11-28T00:50:53.976Z,21.28
2018-11-28T00:51:53.968Z,21.29
2018-11-28T00:52:53.954Z,21.29
2018-11-28T00:53:54.049Z,21.25
2018-11-28T00:54:53.936Z,21.25
2018-11-28T00:55:53.920Z,21.32
2018-11-28T00:56:53.909Z,21.25
2018-11-28T00:57:53.898Z,21.30
2018-11-28T00:58:53.887Z,21.30
2018-11-28T00:59:53.973Z,21.25
2018-11-28T01:00:53.868Z,21.28
2018-11-28T01:01:53.855Z,21.29
2018-11-28T01:02:53.846Z,21.28
2018-11-28T01:03:53.832Z,21.23
2018-11-28T01:04:53.824Z,21.29
2018-11-28T01:05:53.907Z,21.23
2018-11-28T01:06:53.801Z,21.25
2018-11-28T01:07:53.790Z,21.26
2018-11-28T01:08:53.778Z,21.22
2018-11-28T01:09:53.770Z,21.28
2018-11-28T01:10:53.757Z,21.25
2018-11-28T01:11:53.913Z,21.20
2018-11-28T01:12:53.733Z,21.22
2018-11-28T01:13:53.771Z,21.35
2018-11-28T01:14:53.712Z,21.20
2018-11-28T01:15:53.702Z,21.17
2018-11-28T01:16:53.691Z,21.19
2018-11-28T01:17:53.777Z,21.13
2018-11-28T01:18:53.668Z,21.19
2018-11-28T01:19:53.658Z,21.11
2018-11-28T01:20:53.645Z,21.15
2018-11-28T01:21:53.635Z,21.14
2018-11-28T01:22:53.624Z,21.05
2018-11-28T01:23:53.709Z,20.98
2018-11-28T01:24:53.602Z,20.96
2018-11-28T01:25:53.592Z,21.01
2018-11-28T01:26:53.581Z,20.93
2018-11-28T01:27:53.569Z,20.96
2018-11-28T01:28:53.559Z,21.07
2018-11-28T01:29:53.746Z,21.03
2018-11-28T01:30:53.537Z,21.05
2018-11-28T01:31:53.526Z,20.93
2018-11-28T01:32:53.515Z,20.96
2018-11-28T01:33:53.503Z,20.90
2018-11-28T01:34:53.492Z,21.04
2018-11-28T01:35:53.599Z,21.00
2018-11-28T01:36:53.471Z,20.96
2018-11-28T01:37:53.461Z,20.95
2018-11-28T01:38:53.548Z,20.96
2018-11-28T01:39:53.439Z,20.96
2018-11-28T01:40:53.429Z,21.03
2018-11-28T01:41:53.518Z,21.00
2018-11-28T01:42:53.410Z,21.00
2018-11-28T01:43:53.394Z,21.08
2018-11-28T01:44:53.383Z,20.96
2018-11-28T01:45:53.372Z,21.05
2018-11-28T01:46:53.361Z,21.07
2018-11-28T01:47:53.530Z,21.07
2018-11-28T01:48:53.339Z,21.10
2018-11-28T01:49:53.329Z,21.11
2018-11-28T01:50:53.317Z,21.08
2018-11-28T01:51:53.307Z,21.10
2018-11-28T01:52:53.296Z,21.13
2018-11-28T01:53:53.389Z,21.10
2018-11-28T01:54:53.273Z,21.13
2018-11-28T01:55:53.262Z,21.17
2018-11-28T01:56:53.251Z,21.19
2018-11-28T01:57:53.239Z,21.05
2018-11-28T01:58:53.229Z,21.14
2018-11-28T01:59:53.315Z,21.15
2018-11-28T02:00:53.208Z,21.15
2018-11-28T02:01:53.197Z,21.14
2018-11-28T02:02:53.186Z,21.23
2018-11-28T02:03:53.176Z,21.20
2018-11-28T02:04:53.165Z,21.14
2018-11-28T02:05:53.352Z,21.13
2018-11-28T02:06:53.142Z,21.13
2018-11-28T02:07:53.130Z,21.26
2018-11-28T02:08:53.453Z,21.25
2018-11-28T02:09:53.111Z,21.14
2018-11-28T02:10:53.098Z,21.25
2018-11-28T02:11:53.189Z,21.23
2018-11-28T02:12:53.075Z,21.23
2018-11-28T02:13:53.063Z,21.28
2018-11-28T02:14:53.054Z,21.28
2018-11-28T02:15:53.043Z,21.23
2018-11-28T02:16:53.031Z,21.20
2018-11-28T02:17:53.113Z,21.30
2018-11-28T02:18:53.010Z,21.28
2018-11-28T02:19:53.000Z,21.23
2018-11-28T02:20:52.994Z,21.30
2018-11-28T02:21:52.977Z,21.22
2018-11-28T02:22:52.965Z,21.26
2018-11-28T02:23:53.178Z,21.25
2018-11-28T02:24:52.944Z,21.29
2018-11-28T02:25:52.932Z,21.26
2018-11-28T02:26:52.921Z,21.15
2018-11-28T02:27:52.912Z,21.23
2018-11-28T02:28:52.900Z,21.23
2018-11-28T02:29:53.010Z,21.20
2018-11-28T02:30:53.377Z,21.25
2018-11-28T02:31:52.867Z,21.19
2018-11-28T02:32:52.865Z,21.20
2018-11-28T02:33:52.876Z,21.15
2018-11-28T02:34:52.833Z,21.19
2018-11-28T02:35:52.939Z,21.22
2018-11-28T02:36:52.815Z,21.14
2018-11-28T02:37:52.806Z,21.11
2018-11-28T02:38:53.026Z,21.20
2018-11-28T02:39:52.781Z,21.28
2018-11-28T02:40:54.213Z,21.22
2018-11-28T02:41:52.757Z,21.15
2018-11-28T02:42:52.746Z,21.15
2018-11-28T02:43:52.735Z,21.07
2018-11-28T02:44:52.726Z,21.13
2018-11-28T02:45:52.713Z,21.05
2018-11-28T02:46:52.797Z,21.13
2018-11-28T02:47:52.689Z,21.00
2018-11-28T02:48:53.376Z,20.96
2018-11-28T02:49:52.668Z,20.95
2018-11-28T02:50:52.659Z,21.01
2018-11-28T02:51:52.645Z,20.96
2018-11-28T02:52:52.732Z,20.98
2018-11-28T02:53:52.626Z,21.00
2018-11-28T02:54:52.617Z,21.00
2018-11-28T02:55:52.607Z,20.98
2018-11-28T02:56:52.591Z,21.01
2018-11-28T02:57:52.580Z,21.10
2018-11-28T02:58:52.761Z,21.01
2018-11-28T02:59:52.564Z,20.95
2018-11-28T03:00:52.549Z,20.98
2018-11-28T03:01:52.538Z,20.90
2018-11-28T03:02:52.529Z,20.90
2018-11-28T03:03:52.515Z,20.98
2018-11-28T03:04:52.684Z,20.96
2018-11-28T03:05:52.495Z,20.95
2018-11-28T03:06:52.482Z,21.04
2018-11-28T03:07:52.476Z,20.96
2018-11-28T03:08:52.620Z,20.95
2018-11-28T03:09:52.453Z,20.96
2018-11-28T03:10:52.530Z,20.96
2018-11-28T03:11:52.428Z,21.01
2018-11-28T03:12:52.417Z,20.98
2018-11-28T03:13:52.405Z,21.08
2018-11-28T03:14:52.396Z,20.96
2018-11-28T03:15:52.394Z,20.93
2018-11-28T03:16:52.503Z,20.93
2018-11-28T03:17:52.365Z,21.00
2018-11-28T03:18:52.351Z,21.00
2018-11-28T03:19:52.340Z,20.92
2018-11-28T03:20:52.331Z,20.93
2018-11-28T03:21:52.374Z,20.92
2018-11-28T03:22:52.483Z,20.92
2018-11-28T03:23:52.296Z,21.00
2018-11-28T03:24:52.287Z,21.03
2018-11-28T03:25:52.278Z,20.98
2018-11-28T03:26:52.267Z,20.93
2018-11-28T03:27:52.256Z,21.00
2018-11-28T03:28:52.369Z,21.01
2018-11-28T03:29:52.231Z,20.93
2018-11-28T03:30:52.224Z,20.89
2018-11-28T03:31:52.218Z,20.90
2018-11-28T03:32:52.197Z,20.98
2018-11-28T03:33:52.190Z,20.90
2018-11-28T03:34:52.454Z,20.93
2018-11-28T03:35:52.166Z,20.89
2018-11-28T03:36:52.154Z,20.93
2018-11-28T03:37:52.149Z,20.93
2018-11-28T03:38:52.214Z,20.92
2018-11-28T03:39:52.127Z,20.93
2018-11-28T03:40:52.308Z,20.93
2018-11-28T03:41:52.109Z,20.90
2018-11-28T03:42:52.089Z,20.89
2018-11-28T03:43:52.078Z,20.93
2018-11-28T03:44:52.067Z,20.93
2018-11-28T03:45:52.055Z,20.93
2018-11-28T03:46:52.226Z,20.88
2018-11-28T03:47:52.035Z,20.92
2018-11-28T03:48:52.024Z,20.95
2018-11-28T03:49:52.012Z,20.90
2018-11-28T03:50:52.002Z,20.89
2018-11-28T03:51:51.989Z,20.93
2018-11-28T03:52:52.882Z,20.88
2018-11-28T03:53:51.967Z,20.88
2018-11-28T03:54:51.956Z,20.82
2018-11-28T03:55:51.957Z,20.90
2018-11-28T03:56:51.937Z,20.78
2018-11-28T03:57:51.927Z,20.80
2018-11-28T03:58:52.019Z,20.83
2018-11-28T03:59:51.901Z,20.82
2018-11-28T04:00:51.891Z,20.82
2018-11-28T04:01:51.949Z,20.78
2018-11-28T04:02:51.904Z,20.78
2018-11-28T04:03:51.865Z,20.78
2018-11-28T04:04:52.098Z,20.75
2018-11-28T04:05:51.838Z,20.74
2018-11-28T04:06:51.825Z,20.74
2018-11-28T04:07:51.816Z,20.70
2018-11-28T04:08:51.803Z,20.74
2018-11-28T04:09:51.793Z,20.78
2018-11-28T04:10:51.884Z,20.70
2018-11-28T04:11:51.772Z,20.75
2018-11-28T04:12:51.762Z,20.66
2018-11-28T04:13:51.751Z,20.74
2018-11-28T04:14:51.741Z,20.60
2018-11-28T04:15:51.729Z,20.68
2018-11-28T04:16:51.821Z,20.67
2018-11-28T04:17:51.705Z,20.75
2018-11-28T04:18:51.695Z,20.71
2018-11-28T04:19:51.692Z,20.71
2018-11-28T04:20:51.673Z,20.78
2018-11-28T04:21:51.663Z,20.78
2018-11-28T04:22:51.831Z,20.80
2018-11-28T04:23:51.640Z,20.77
2018-11-28T04:24:51.634Z,20.80
2018-11-28T04:25:51.620Z,20.78
2018-11-28T04:26:51.612Z,20.77
2018-11-28T04:27:51.599Z,20.78
2018-11-28T04:28:51.685Z,20.80
2018-11-28T04:29:51.574Z,20.78
2018-11-28T04:30:51.571Z,20.80
2018-11-28T04:31:51.553Z,20.83
2018-11-28T04:32:51.549Z,20.80
2018-11-28T04:33:51.553Z,20.82
2018-11-28T04:34:51.802Z,20.83
2018-11-28T04:35:51.510Z,20.78
2018-11-28T04:36:51.499Z,20.82
2018-11-28T04:37:51.485Z,20.80
2018-11-28T04:38:51.705Z,20.83
2018-11-28T04:39:51.470Z,20.80
2018-11-28T04:40:51.660Z,20.88
2018-11-28T04:41:51.444Z,20.89
2018-11-28T04:42:51.431Z,20.86
2018-11-28T04:43:51.421Z,20.89
2018-11-28T04:44:51.409Z,20.95
2018-11-28T04:45:51.398Z,20.96
2018-11-28T04:46:51.486Z,21.01
2018-11-28T04:47:51.388Z,20.92
2018-11-28T04:48:51.381Z,21.03
2018-11-28T04:49:51.357Z,20.95
2018-11-28T04:50:51.345Z,20.90
2018-11-28T04:51:51.342Z,20.95
2018-11-28T04:52:51.424Z,20.98
2018-11-28T04:53:51.310Z,20.96
2018-11-28T04:54:51.307Z,21.00
2018-11-28T04:55:51.309Z,21.08
2018-11-28T04:56:51.303Z,21.08
2018-11-28T04:57:51.277Z,21.15
2018-11-28T04:58:51.465Z,21.13
2018-11-28T04:59:51.248Z,21.08
2018-11-28T05:00:51.237Z,21.19
2018-11-28T05:01:51.239Z,21.17
2018-11-28T05:02:51.212Z,21.20
2018-11-28T05:03:51.200Z,21.29
2018-11-28T05:04:51.396Z,21.19
2018-11-28T05:05:51.185Z,21.23
2018-11-28T05:06:51.173Z,21.28
2018-11-28T05:07:51.160Z,21.25
2018-11-28T05:08:51.298Z,21.29
2018-11-28T05:09:51.143Z,21.28
2018-11-28T05:10:51.229Z,21.28
2018-11-28T05:11:51.128Z,21.29
2018-11-28T05:12:51.116Z,21.25
2018-11-28T05:13:51.167Z,21.30
2018-11-28T05:14:51.080Z,21.26
2018-11-28T05:15:51.070Z,21.28
2018-11-28T05:16:51.349Z,21.25
2018-11-28T05:17:51.047Z,21.28
2018-11-28T05:18:51.041Z,21.28
2018-11-28T05:19:51.031Z,21.30
2018-11-28T05:20:51.016Z,21.28
2018-11-28T05:21:51.005Z,21.29
2018-11-28T05:22:51.277Z,21.32
2018-11-28T05:23:50.986Z,21.35
2018-11-28T05:24:50.969Z,21.28
2018-11-28T05:25:50.961Z,21.30
2018-11-28T05:26:50.949Z,21.35
2018-11-28T05:27:50.938Z,21.38
2018-11-28T05:28:51.037Z,21.37
2018-11-28T05:29:50.915Z,21.38
2018-11-28T05:30:50.907Z,21.33
2018-11-28T05:31:50.900Z,21.40
2018-11-28T05:32:50.883Z,21.40
2018-11-28T05:33:50.872Z,21.51
2018-11-28T05:34:50.956Z,21.44
2018-11-28T05:35:50.850Z,21.45
2018-11-28T05:36:50.846Z,21.48
2018-11-28T05:37:50.828Z,21.40
2018-11-28T05:38:52.120Z,21.47
2018-11-28T05:39:50.830Z,21.53
2018-11-28T05:40:50.893Z,21.45
2018-11-28T05:41:50.784Z,21.48
2018-11-28T05:42:50.777Z,21.53
2018-11-28T05:43:50.762Z,21.62
2018-11-28T05:44:50.753Z,21.63
2018-11-28T05:45:50.740Z,21.60
2018-11-28T05:46:50.836Z,21.63
2018-11-28T05:47:50.719Z,21.58
2018-11-28T05:48:50.709Z,21.63
2018-11-28T05:49:50.698Z,21.59
2018-11-28T05:50:50.685Z,21.69
2018-11-28T05:51:50.707Z,21.74
2018-11-28T05:52:50.836Z,21.69
2018-11-28T05:53:50.654Z,21.66
2018-11-28T05:54:50.642Z,21.65
2018-11-28T05:55:50.631Z,21.69
2018-11-28T05:56:50.621Z,21.74
2018-11-28T05:57:50.616Z,21.83
2018-11-28T05:58:50.798Z,21.77
2018-11-28T05:59:50.590Z,21.75
2018-11-28T06:00:50.577Z,21.81
2018-11-28T06:01:50.567Z,21.81
2018-11-28T06:02:50.554Z,21.83
2018-11-28T06:03:50.551Z,21.91
2018-11-28T06:04:50.639Z,21.92
2018-11-28T06:05:50.523Z,21.85
2018-11-28T06:06:50.510Z,21.88
2018-11-28T06:07:50.499Z,21.92
2018-11-28T06:08:50.792Z,21.94
2018-11-28T06:09:50.478Z,21.92
2018-11-28T06:10:50.582Z,21.92
2018-11-28T06:11:50.458Z,22.04
2018-11-28T06:12:50.445Z,22.07
2018-11-28T06:13:50.444Z,22.06
2018-11-28T06:14:50.423Z,22.06
2018-11-28T06:15:51.411Z,22.12
2018-11-28T06:16:50.721Z,22.07
2018-11-28T06:17:50.395Z,22.15
2018-11-28T06:18:50.385Z,22.16
2018-11-28T06:19:50.887Z,22.07
2018-11-28T06:20:50.367Z,22.16
2018-11-28T06:21:50.351Z,22.22
2018-11-28T06:22:50.529Z,22.23
2018-11-28T06:23:50.323Z,22.19
2018-11-28T06:24:50.311Z,22.31
2018-11-28T06:25:50.307Z,22.23
2018-11-28T06:26:50.319Z,22.33
2018-11-28T06:27:50.288Z,22.34
2018-11-28T06:28:50.465Z,22.34
2018-11-28T06:29:50.292Z,22.40
2018-11-28T06:30:51.793Z,22.38
2018-11-28T06:31:50.244Z,22.38
2018-11-28T06:32:51.449Z,22.43
2018-11-28T06:33:50.218Z,22.49
2018-11-28T06:34:50.484Z,22.47
2018-11-28T06:35:50.799Z,22.51
2018-11-28T06:36:50.190Z,22.47
2018-11-28T06:37:50.180Z,22.47
2018-11-28T06:38:50.170Z,22.59
2018-11-28T06:39:50.800Z,22.55
2018-11-28T06:40:50.254Z,22.70
2018-11-28T06:41:50.129Z,22.67
2018-11-28T06:42:50.887Z,22.68
2018-11-28T06:43:50.104Z,22.70
2018-11-28T06:44:50.093Z,22.67
2018-11-28T06:45:50.081Z,22.68
2018-11-28T06:46:50.177Z,22.61
2018-11-28T06:47:50.062Z,22.73
2018-11-28T06:48:50.050Z,22.71
2018-11-28T06:49:50.041Z,22.71
2018-11-28T06:50:50.028Z,22.68
2018-11-28T06:51:50.017Z,22.74
2018-11-28T06:52:50.289Z,22.73
2018-11-28T06:53:49.999Z,22.77
2018-11-28T06:54:49.984Z,22.71
2018-11-28T06:55:49.973Z,22.76
2018-11-28T06:56:49.962Z,22.73
2018-11-28T06:57:49.950Z,22.76
2018-11-28T06:58:50.046Z,22.78
2018-11-28T06:59:49.928Z,22.88
2018-11-28T07:00:49.917Z,22.88
2018-11-28T07:01:49.906Z,22.80
2018-11-28T07:02:49.896Z,22.77
2018-11-28T07:03:49.885Z,22.84
2018-11-28T07:04:50.074Z,22.81
2018-11-28T07:05:49.864Z,22.81
2018-11-28T07:06:49.855Z,22.92
2018-11-28T07:07:49.844Z,22.92
2018-11-28T07:08:52.126Z,22.93
2018-11-28T07:09:49.822Z,23.04
2018-11-28T07:10:49.920Z,23.07
2018-11-28T07:11:49.797Z,23.14
2018-11-28T07:12:49.787Z,23.16
2018-11-28T07:13:49.776Z,23.18
2018-11-28T07:14:49.764Z,23.28
2018-11-28T07:15:49.753Z,23.26
2018-11-28T07:16:49.837Z,23.29
2018-11-28T07:17:49.753Z,23.39
2018-11-28T07:18:49.721Z,23.45
2018-11-28T07:19:49.712Z,23.40
2018-11-28T07:20:49.703Z,23.45
2018-11-28T07:21:49.687Z,23.44
2018-11-28T07:22:49.991Z,23.48
2018-11-28T07:23:49.670Z,23.51
2018-11-28T07:24:49.660Z,23.47
2018-11-28T07:25:49.644Z,23.47
2018-11-28T07:26:49.634Z,23.51
2018-11-28T07:27:49.624Z,23.47
2018-11-28T07:28:49.710Z,23.42
2018-11-28T07:29:49.604Z,23.51
2018-11-28T07:30:49.589Z,23.51
2018-11-28T07:31:49.579Z,23.51
2018-11-28T07:32:49.568Z,23.67
2018-11-28T07:33:49.556Z,23.66
2018-11-28T07:34:49.647Z,23.59
2018-11-28T07:35:49.534Z,23.64
2018-11-28T07:36:49.524Z,23.63
2018-11-28T07:37:49.514Z,23.69
2018-11-28T07:38:49.568Z,23.74
2018-11-28T07:39:49.492Z,23.76
2018-11-28T07:40:49.686Z,23.84
2018-11-28T07:41:49.469Z,23.81
2018-11-28T07:42:49.459Z,23.89
2018-11-28T07:43:49.447Z,23.91
2018-11-28T07:44:49.441Z,23.99
2018-11-28T07:45:49.425Z,24.01
2018-11-28T07:46:49.590Z,23.95
2018-11-28T07:47:49.410Z,23.92
2018-11-28T07:48:49.396Z,23.95
2018-11-28T07:49:49.385Z,24.06
2018-11-28T07:50:49.374Z,24.11
2018-11-28T07:51:49.364Z,24.13
2018-11-28T07:52:49.453Z,24.22
2018-11-28T07:53:49.339Z,24.24
2018-11-28T07:54:49.335Z,24.32
2018-11-28T07:55:49.329Z,24.36
2018-11-28T07:56:49.307Z,24.55
2018-11-28T07:57:49.299Z,24.55
2018-11-28T07:58:49.459Z,24.63
2018-11-28T07:59:49.274Z,24.71
2018-11-28T08:00:49.269Z,24.86
2018-11-28T08:01:49.253Z,24.92
2018-11-28T08:02:49.243Z,24.99
2018-11-28T08:03:49.620Z,25.07
2018-11-28T08:04:49.398Z,25.16
2018-11-28T08:05:49.214Z,25.31
2018-11-28T08:06:49.210Z,25.37
2018-11-28T08:07:49.189Z,25.37
2018-11-28T08:08:49.181Z,25.51
2018-11-28T08:09:49.168Z,25.61
2018-11-28T08:10:49.254Z,25.71
2018-11-28T08:11:49.145Z,25.77
2018-11-28T08:12:49.143Z,25.88
2018-11-28T08:13:49.123Z,25.92
2018-11-28T08:14:49.115Z,25.99
2018-11-28T08:15:49.125Z,25.96
2018-11-28T08:16:49.301Z,26.04
2018-11-28T08:17:49.081Z,26.11
2018-11-28T08:18:49.073Z,26.22
2018-11-28T08:19:49.059Z,26.18
2018-11-28T08:20:49.049Z,26.34
2018-11-28T08:21:49.048Z,26.39
2018-11-28T08:22:49.135Z,26.45
2018-11-28T08:23:49.017Z,26.61
2018-11-28T08:24:49.005Z,26.56
2018-11-28T08:25:48.994Z,26.67
2018-11-28T08:26:48.983Z,26.66
2018-11-28T08:27:48.973Z,26.76
2018-11-28T08:28:49.151Z,26.83
2018-11-28T08:29:48.953Z,26.91
2018-11-28T08:30:48.946Z,26.91
2018-11-28T08:31:48.928Z,27.01
2018-11-28T08:32:48.918Z,27.05
2018-11-28T08:33:48.908Z,27.10
2018-11-28T08:34:49.182Z,27.13
2018-11-28T08:35:48.887Z,27.20
2018-11-28T08:36:48.874Z,27.22
2018-11-28T08:37:48.863Z,27.28
2018-11-28T08:38:49.063Z,27.38
2018-11-28T08:39:48.842Z,27.44
2018-11-28T08:40:48.929Z,27.48
2018-11-28T08:41:48.819Z,27.44
2018-11-28T08:42:48.808Z,27.48
2018-11-28T08:43:48.798Z,27.48
2018-11-28T08:44:48.787Z,27.38
2018-11-28T08:45:48.779Z,27.45
2018-11-28T08:46:48.871Z,27.50
2018-11-28T08:47:48.754Z,27.45
2018-11-28T08:48:48.744Z,27.43
2018-11-28T08:49:48.733Z,27.37
2018-11-28T08:50:48.723Z,27.45
2018-11-28T08:51:48.710Z,27.63
2018-11-28T08:52:48.956Z,27.63
2018-11-28T08:53:48.693Z,27.57
2018-11-28T08:54:48.677Z,27.63
2018-11-28T08:55:48.673Z,27.58
2018-11-28T08:56:48.659Z,27.60
2018-11-28T08:57:48.645Z,27.61
2018-11-28T08:58:48.901Z,27.64
2018-11-28T08:59:48.625Z,27.72
2018-11-28T09:00:48.615Z,27.60
2018-11-28T09:01:48.616Z,27.60
2018-11-28T09:02:48.590Z,27.50
2018-11-28T09:03:48.579Z,27.61
2018-11-28T09:04:48.687Z,27.60
2018-11-28T09:05:48.562Z,27.57
2018-11-28T09:06:48.548Z,27.60
2018-11-28T09:07:48.538Z,27.64
2018-11-28T09:08:48.655Z,27.67
2018-11-28T09:09:49.768Z,27.64
2018-11-28T09:10:48.788Z,27.68
2018-11-28T09:11:48.496Z,27.71
2018-11-28T09:12:48.484Z,27.68
2018-11-28T09:13:48.469Z,27.64
2018-11-28T09:14:48.462Z,27.63
2018-11-28T09:15:48.449Z,27.63
2018-11-28T09:16:48.535Z,27.68
2018-11-28T09:17:48.426Z,27.66
2018-11-28T09:18:48.426Z,27.63
2018-11-28T09:19:48.405Z,27.61
2018-11-28T09:20:48.394Z,27.60
2018-11-28T09:21:48.385Z,27.55
2018-11-28T09:22:48.475Z,27.57
2018-11-28T09:23:48.365Z,27.58
2018-11-28T09:24:48.350Z,27.58
2018-11-28T09:25:48.340Z,27.60
2018-11-28T09:26:48.339Z,27.61
2018-11-28T09:27:48.317Z,27.60
2018-11-28T09:28:48.419Z,27.68
2018-11-28T09:29:48.295Z,27.68
2018-11-28T09:30:48.287Z,27.83
2018-11-28T09:31:48.273Z,27.83
2018-11-28T09:32:48.264Z,27.95
2018-11-28T09:33:48.252Z,28.04
2018-11-28T09:34:48.511Z,28.03
2018-11-28T09:35:48.228Z,28.03
2018-11-28T09:36:48.231Z,28.03
2018-11-28T09:37:48.212Z,28.08
2018-11-28T09:38:48.248Z,28.12
2018-11-28T09:39:48.197Z,28.03
2018-11-28T09:40:48.285Z,28.15
2018-11-28T09:41:48.175Z,28.13
2018-11-28T09:42:48.155Z,28.00
2018-11-28T09:43:48.145Z,28.13
2018-11-28T09:44:48.129Z,28.16
2018-11-28T09:45:48.131Z,28.16
2018-11-28T09:46:48.236Z,28.23
2018-11-28T09:47:48.097Z,28.27
2018-11-28T09:48:48.093Z,28.27
2018-11-28T09:49:48.078Z,28.28
2018-11-28T09:50:48.067Z,28.31
2018-11-28T09:51:48.066Z,28.34
2018-11-28T09:52:48.217Z,28.35
2018-11-28T09:53:48.033Z,28.41
2018-11-28T09:54:48.029Z,28.52
2018-11-28T09:55:48.013Z,28.64
2018-11-28T09:56:48.000Z,28.65
2018-11-28T09:57:48.002Z,28.72
2018-11-28T09:58:48.293Z,28.74
2018-11-28T09:59:47.971Z,28.77
2018-11-28T10:00:47.966Z,28.86
2018-11-28T10:01:47.945Z,28.94
2018-11-28T10:02:47.940Z,28.94
2018-11-28T10:03:47.926Z,28.92
2018-11-28T10:04:48.027Z,28.94
2018-11-28T10:05:47.912Z,28.94
2018-11-28T10:06:47.891Z,28.86
2018-11-28T10:07:47.888Z,28.92
2018-11-28T10:08:47.874Z,28.93
2018-11-28T10:09:47.866Z,28.93
2018-11-28T10:10:48.022Z,28.93
2018-11-28T10:11:47.836Z,28.97
2018-11-28T10:12:47.834Z,29.12
2018-11-28T10:13:47.819Z,29.18
2018-11-28T10:14:47.822Z,29.18
2018-11-28T10:15:47.800Z,29.13
2018-11-28T10:16:48.686Z,29.15
2018-11-28T10:17:47.897Z,29.28
2018-11-28T10:18:47.768Z,29.40
2018-11-28T10:19:47.756Z,29.40
2018-11-28T10:20:47.746Z,29.55
2018-11-28T10:21:47.727Z,29.44
2018-11-28T10:22:47.824Z,29.50
2018-11-28T10:23:47.712Z,29.50
2018-11-28T10:24:47.696Z,29.59
2018-11-28T10:25:47.700Z,29.67
2018-11-28T10:26:47.680Z,29.69
2018-11-28T10:27:47.671Z,29.80
2018-11-28T10:28:47.777Z,29.80
2018-11-28T10:29:47.649Z,29.92
2018-11-28T10:30:47.634Z,30.02
2018-11-28T10:31:47.639Z,30.06
2018-11-28T10:32:47.610Z,30.17
2018-11-28T10:33:47.607Z,30.24
2018-11-28T10:34:47.774Z,30.31
2018-11-28T10:35:47.587Z,30.32
2018-11-28T10:36:47.577Z,30.31
2018-11-28T10:37:47.568Z,30.24
2018-11-28T10:38:47.560Z,30.35
2018-11-28T10:39:47.548Z,30.32
2018-11-28T10:40:47.841Z,30.26
2018-11-28T10:41:47.521Z,30.26
2018-11-28T10:42:47.508Z,30.33
2018-11-28T10:43:47.492Z,30.40
2018-11-28T10:44:47.491Z,30.55
2018-11-28T10:45:47.480Z,30.48
2018-11-28T10:46:47.567Z,30.51
2018-11-28T10:47:47.446Z,30.46
2018-11-28T10:48:47.446Z,30.38
2018-11-28T10:49:47.429Z,30.43
2018-11-28T10:50:47.421Z,30.39
2018-11-28T10:51:50.302Z,30.44
2018-11-28T10:52:47.503Z,30.55
2018-11-28T10:53:47.397Z,30.59
2018-11-28T10:54:47.373Z,30.70
2018-11-28T10:55:47.379Z,30.78
2018-11-28T10:56:47.358Z,30.74
2018-11-28T10:57:47.345Z,30.73
2018-11-28T10:58:47.638Z,30.73
2018-11-28T10:59:47.328Z,30.78
2018-11-28T11:00:47.305Z,30.96
2018-11-28T11:01:47.309Z,31.07
2018-11-28T11:02:47.312Z,31.00
2018-11-28T11:03:47.287Z,31.14
2018-11-28T11:04:47.384Z,31.26
2018-11-28T11:05:47.262Z,31.33
2018-11-28T11:06:47.243Z,31.44
2018-11-28T11:07:47.242Z,31.35
2018-11-28T11:08:47.336Z,31.51
2018-11-28T11:09:47.216Z,31.44
2018-11-28T11:10:47.480Z,31.45
2018-11-28T11:11:47.193Z,31.39
2018-11-28T11:12:47.180Z,31.42
2018-11-28T11:13:47.172Z,31.51
2018-11-28T11:14:47.170Z,31.45
2018-11-28T11:15:47.157Z,31.54
2018-11-28T11:16:47.244Z,31.48
2018-11-28T11:17:47.146Z,31.63
2018-11-28T11:18:47.117Z,31.60
2018-11-28T11:19:47.104Z,31.74
2018-11-28T11:20:47.101Z,31.86
2018-11-28T11:21:47.093Z,31.98
2018-11-28T11:22:47.325Z,32.09
2018-11-28T11:23:47.058Z,32.30
2018-11-28T11:24:47.048Z,32.42
2018-11-28T11:25:47.046Z,32.46
2018-11-28T11:26:47.059Z,32.56
2018-11-28T11:27:47.020Z,32.73
2018-11-28T11:28:47.352Z,32.86
2018-11-28T11:29:47.003Z,32.90
2018-11-28T11:30:47.004Z,33.05
2018-11-28T11:31:46.972Z,32.97
2018-11-28T11:32:47.022Z,32.94
2018-11-28T11:33:46.965Z,33.08
2018-11-28T11:34:47.056Z,33.01
2018-11-28T11:35:46.940Z,33.17
2018-11-28T11:36:46.924Z,33.17
2018-11-28T11:37:46.915Z,33.32
2018-11-28T11:38:47.234Z,33.26
2018-11-28T11:39:46.887Z,33.32
2018-11-28T11:40:47.112Z,33.20
2018-11-28T11:41:46.869Z,33.26
2018-11-28T11:42:46.870Z,33.20
2018-11-28T11:43:46.849Z,33.29
2018-11-28T11:44:46.848Z,33.28
2018-11-28T11:45:46.835Z,33.29
2018-11-28T11:46:46.921Z,33.22
2018-11-28T11:47:46.834Z,33.20
2018-11-28T11:48:46.801Z,33.29
2018-11-28T11:49:46.792Z,33.23
2018-11-28T11:50:46.799Z,33.12
2018-11-28T11:51:46.762Z,33.08
2018-11-28T11:52:46.922Z,33.01
2018-11-28T11:53:46.739Z,32.97
2018-11-28T11:54:46.787Z,32.97
2018-11-28T11:55:46.732Z,33.00
2018-11-28T11:56:46.740Z,33.01
2018-11-28T11:57:46.708Z,33.04
2018-11-28T11:58:46.977Z,33.08
2018-11-28T11:59:46.687Z,33.15
2018-11-28T12:00:46.663Z,33.10
2018-11-28T12:01:46.722Z,33.08
2018-11-28T12:02:46.650Z,33.08
2018-11-28T12:03:46.643Z,33.08
2018-11-28T12:04:46.801Z,33.03
2018-11-28T12:05:46.626Z,33.09
2018-11-28T12:06:46.611Z,33.04
2018-11-28T12:07:46.595Z,33.03
2018-11-28T12:08:46.867Z,32.95
2018-11-28T12:09:46.573Z,32.85
2018-11-28T12:10:46.664Z,32.81
2018-11-28T12:11:46.555Z,32.72
2018-11-28T12:12:51.683Z,32.66
2018-11-28T12:13:47.538Z,32.53
2018-11-28T12:14:46.523Z,32.51
2018-11-28T12:15:46.522Z,32.46
2018-11-28T12:16:46.687Z,32.44
2018-11-28T12:17:46.505Z,32.46
2018-11-28T12:18:46.472Z,32.53
2018-11-28T12:19:46.487Z,32.46
2018-11-28T12:20:46.461Z,32.48
2018-11-28T12:21:46.458Z,32.45
2018-11-28T12:22:46.545Z,32.53
2018-11-28T12:23:46.423Z,32.56
2018-11-28T12:24:46.421Z,32.76
2018-11-28T12:25:46.412Z,32.86
2018-11-28T12:26:46.429Z,32.98
2018-11-28T12:27:46.390Z,32.94
2018-11-28T12:28:46.550Z,32.98
2018-11-28T12:29:46.373Z,32.81
2018-11-28T12:30:46.353Z,32.73
2018-11-28T12:31:46.346Z,32.75
2018-11-28T12:32:46.333Z,33.00
2018-11-28T12:33:46.337Z,33.01
2018-11-28T12:34:50.415Z,33.19
2018-11-28T12:35:46.306Z,33.26
2018-11-28T12:36:46.290Z,33.44
2018-11-28T12:37:46.286Z,33.47
2018-11-28T12:38:46.273Z,33.55
2018-11-28T12:39:46.263Z,33.70
2018-11-28T12:40:46.369Z,33.70
2018-11-28T12:41:46.242Z,33.63
2018-11-28T12:42:46.231Z,33.66
2018-11-28T12:43:46.222Z,33.45
2018-11-28T12:44:46.214Z,33.32
2018-11-28T12:45:46.200Z,33.16
2018-11-28T12:46:46.290Z,32.90
2018-11-28T12:47:46.174Z,32.76
2018-11-28T12:48:46.161Z,32.49
2018-11-28T12:49:46.153Z,32.37
2018-11-28T12:50:46.143Z,32.17
2018-11-28T12:51:46.920Z,31.93
2018-11-28T12:52:46.354Z,31.79